Time;durP1;ratioP1;P1;durP2;ratioP2;P2;SDS_P1;SDS_P2;PMS_P1;PMS_P2;Temp;Humidity;BMP_temperature;BMP_pressure;BME280_temperature;BME280_humidity;BME280_pressure;Samples;Min_cycle;Max_cycle;Signal;HPM_P1;HPM_P2
2022/10/30 00:01:55;;;;;;;13.60;7.72;;;;;;;17.25;64.68;101592.38;5055007;28;20762;-74
2022/10/30 00:04:20;;;;;;;16.67;8.18;;;;;;;17.20;64.70;101594.31;5054145;28;20074;-75
2022/10/30 00:06:47;;;;;;;18.30;8.27;;;;;;;17.15;64.96;101597.97;5051989;28;20044;-74
2022/10/30 00:09:12;;;;;;;14.85;7.95;;;;;;;17.15;64.53;101597.97;5042810;28;20131;-75
2022/10/30 00:11:39;;;;;;;15.00;7.55;;;;;;;17.13;64.98;101603.88;5072690;28;20028;-75
2022/10/30 00:14:04;;;;;;;15.73;7.68;;;;;;;17.12;64.75;101606.94;5073232;28;20036;-75
2022/10/30 00:16:29;;;;;;;17.52;7.72;;;;;;;17.13;65.35;101600.19;5062554;28;20029;-75
2022/10/30 00:18:55;;;;;;;15.55;7.45;;;;;;;17.10;65.04;101595.16;5053542;28;20040;-75
2022/10/30 00:21:20;;;;;;;15.93;8.07;;;;;;;17.12;64.84;101592.91;5052980;28;20033;-74
2022/10/30 00:23:50;;;;;;;14.23;7.60;;;;;;;17.06;65.01;101600.47;5042574;28;20041;-74
2022/10/30 00:26:16;;;;;;;21.42;7.60;;;;;;;17.03;64.97;101600.19;5043508;28;20024;-74
2022/10/30 00:28:42;;;;;;;21.20;8.43;;;;;;;17.02;65.07;101601.31;5068220;28;20032;-74
2022/10/30 00:31:08;;;;;;;15.32;8.15;;;;;;;16.97;65.13;101595.69;5053565;28;20025;-74
2022/10/30 00:33:33;;;;;;;16.35;7.85;;;;;;;16.93;65.25;101595.41;5051524;28;20079;-74
2022/10/30 00:35:59;;;;;;;21.20;7.80;;;;;;;16.89;65.41;101600.72;5046990;28;20041;-74
2022/10/30 00:38:25;;;;;;;15.82;7.72;;;;;;;16.91;65.51;101592.03;5033442;28;20484;-74
2022/10/30 00:40:50;;;;;;;14.93;7.90;;;;;;;16.87;65.44;101586.16;5064001;28;20061;-74
2022/10/30 00:43:45;;;;;;;16.42;8.68;;;;;;;16.90;65.55;101588.41;5072526;28;20477;-75
2022/10/30 00:46:38;;;;;;;17.60;8.25;;;;;;;16.86;65.71;101589.25;5038426;28;20041;-74
2022/10/30 00:49:12;;;;;;;16.77;8.52;;;;;;;16.76;65.94;101587.25;5032410;28;20064;-75
2022/10/30 00:51:41;;;;;;;15.00;7.70;;;;;;;16.69;65.80;101586.63;5033137;28;20034;-74
2022/10/30 00:54:07;;;;;;;17.20;7.75;;;;;;;16.66;65.86;101587.16;5038172;28;20032;-74
2022/10/30 00:56:34;;;;;;;13.45;7.90;;;;;;;16.66;65.77;101590.84;5072474;28;20060;-74
2022/10/30 00:59:09;;;;;;;17.30;8.02;;;;;;;16.64;65.96;101587.47;5072725;28;20427;-74
2022/10/30 01:01:39;;;;;;;14.25;8.05;;;;;;;16.63;66.01;101587.75;5072744;28;20112;-75
2022/10/30 01:04:05;;;;;;;22.60;8.40;;;;;;;16.62;65.90;101589.72;5058055;28;20032;-75
2022/10/30 01:06:37;;;;;;;16.13;7.53;;;;;;;16.56;66.08;101587.16;5073022;28;20060;-75
2022/10/30 01:09:13;;;;;;;13.23;7.70;;;;;;;16.56;66.25;101587.16;5072708;28;20471;-75
2022/10/30 01:11:38;;;;;;;17.13;8.70;;;;;;;16.47;66.18;101592.47;5072684;28;20028;-75
2022/10/30 01:14:07;;;;;;;14.95;7.80;;;;;;;16.45;66.44;101598.31;5051523;28;20556;-75
2022/10/30 01:16:54;;;;;;;17.85;8.02;;;;;;;16.49;66.50;101589.38;5033800;28;20229;-75
2022/10/30 01:20:03;;;;;;;16.80;7.75;;;;;;;16.49;66.48;101598.63;5036621;28;20481;-75
2022/10/30 01:22:47;;;;;;;19.42;8.48;;;;;;;16.50;66.43;101596.66;5030102;28;20544;-75
2022/10/30 01:25:37;;;;;;;16.55;7.65;;;;;;;16.47;66.46;101597.22;5031396;28;20045;-74
2022/10/30 01:28:08;;;;;;;13.68;7.75;;;;;;;16.41;66.36;101596.34;5032623;28;20084;-74
2022/10/30 01:31:08;;;;;;;12.05;8.32;;;;;;;16.38;66.69;101592.13;5031704;28;20070;-74
2022/10/30 01:33:50;;;;;;;15.00;7.80;;;;;;;16.35;66.41;101595.50;5053633;28;20045;-74
2022/10/30 01:36:24;;;;;;;15.60;8.00;;;;;;;16.34;66.51;101602.19;5071875;28;20049;-75
2022/10/30 01:38:55;;;;;;;13.32;7.45;;;;;;;16.29;66.83;101599.38;5047103;28;20040;-75
2022/10/30 01:41:20;;;;;;;18.02;7.60;;;;;;;16.27;66.65;101607.22;5032342;28;20453;-74
2022/10/30 01:43:49;;;;;;;11.07;7.60;;;;;;;16.24;66.83;101604.13;5032157;28;20068;-74
2022/10/30 01:46:34;;;;;;;13.95;7.88;;;;;;;16.26;66.88;101597.13;5036014;28;20029;-74
2022/10/30 01:49:18;;;;;;;16.65;7.80;;;;;;;16.26;66.81;101608.31;5039661;28;20045;-74
2022/10/30 01:52:29;;;;;;;15.32;7.85;;;;;;;16.21;67.06;101605.50;5042860;28;20029;-75
2022/10/30 01:54:56;;;;;;;18.58;7.93;;;;;;;16.14;67.21;101611.34;5049212;28;20102;-75
2022/10/30 02:00:26;;;;;;;14.65;8.68;;;;;;;16.08;67.10;101614.41;5054307;28;20036;-74
2022/10/30 02:02:55;;;;;;;13.98;8.35;;;;;;;16.05;67.50;101612.16;5043441;28;20152;-74
2022/10/30 02:05:40;;;;;;;15.88;7.28;;;;;;;16.05;67.48;101610.19;5032305;28;20025;-74
2022/10/30 02:08:05;;;;;;;13.77;7.38;;;;;;;16.02;67.17;101621.09;5032321;28;20053;-74
2022/10/30 02:10:35;;;;;;;16.85;7.90;;;;;;;16.06;67.25;101616.63;5031908;28;20128;-74
2022/10/30 02:13:01;;;;;;;14.77;8.05;;;;;;;16.06;67.39;101625.88;5031241;28;20030;-75
2022/10/30 02:15:27;;;;;;;15.60;7.85;;;;;;;16.03;67.46;101612.41;5045284;28;20028;-74
2022/10/30 02:17:54;;;;;;;17.83;8.52;;;;;;;16.00;67.45;101615.75;5058542;28;20413;-74
2022/10/30 02:20:20;;;;;;;16.88;8.57;;;;;;;16.00;67.51;101606.53;5038681;28;20022;-74
2022/10/30 02:22:46;;;;;;;10.52;7.35;;;;;;;15.97;67.46;101615.47;5046693;28;20025;-74
2022/10/30 02:25:14;;;;;;;14.32;7.82;;;;;;;15.93;67.52;101621.59;5033654;28;20029;-74
2022/10/30 02:27:40;;;;;;;17.42;8.23;;;;;;;15.92;67.73;101619.91;5031921;28;20532;-74
2022/10/30 02:30:06;;;;;;;17.52;8.48;;;;;;;15.90;67.58;101622.13;5032500;28;20121;-74
2022/10/30 02:32:32;;;;;;;19.40;7.68;;;;;;;15.90;67.70;101621.28;5052866;28;20028;-74
2022/10/30 02:34:57;;;;;;;16.13;8.95;;;;;;;15.94;67.68;101619.63;5050013;28;20210;-74
2022/10/30 02:37:23;;;;;;;20.10;8.55;;;;;;;15.89;67.86;101620.44;5034125;28;20068;-74
2022/10/30 02:39:49;;;;;;;24.48;8.85;;;;;;;15.90;67.94;101630.53;5032015;28;20033;-74
2022/10/30 02:42:14;;;;;;;20.58;8.85;;;;;;;15.90;68.13;101630.53;5031400;28;20151;-75
2022/10/30 02:44:42;;;;;;;18.35;8.07;;;;;;;15.93;68.26;101630.00;5031877;28;20029;-74
2022/10/30 02:47:07;;;;;;;16.42;8.30;;;;;;;15.90;68.35;101627.72;5052154;28;20029;-74
2022/10/30 02:49:33;;;;;;;16.48;7.45;;;;;;;15.95;68.03;101635.31;5071002;28;20038;-74
2022/10/30 02:51:58;;;;;;;16.40;7.85;;;;;;;15.95;68.24;101624.97;5061516;28;20033;-74
2022/10/30 02:54:24;;;;;;;13.65;7.97;;;;;;;15.93;68.10;101626.34;5067907;28;20032;-74
2022/10/30 02:56:50;;;;;;;17.48;8.27;;;;;;;15.97;68.03;101618.25;5070436;28;20024;-74
2022/10/30 02:59:15;;;;;;;15.27;7.85;;;;;;;15.93;68.06;101620.75;5065799;28;20089;-74
2022/10/30 03:01:40;;;;;;;14.52;7.72;;;;;;;15.92;68.14;101630.28;5049291;28;20092;-74
2022/10/30 03:04:05;;;;;;;14.77;8.20;;;;;;;15.90;68.20;101622.13;5049759;28;20696;-74
2022/10/30 03:06:31;;;;;;;13.38;7.55;;;;;;;15.87;68.03;101622.66;5070765;28;20028;-74
2022/10/30 03:08:57;;;;;;;15.95;8.10;;;;;;;15.84;68.01;101612.03;5057769;28;20054;-74
2022/10/30 03:11:22;;;;;;;16.13;7.88;;;;;;;15.82;68.46;101610.59;5050941;28;20036;-74
2022/10/30 03:13:48;;;;;;;17.25;8.32;;;;;;;15.83;68.40;101609.47;5062358;28;20029;-74
2022/10/30 03:16:16;;;;;;;12.70;7.70;;;;;;;15.81;68.53;101612.56;5053237;28;20033;-74
2022/10/30 03:18:42;;;;;;;15.00;8.13;;;;;;;15.81;68.32;101611.72;5034677;28;20091;-74
2022/10/30 03:21:10;;;;;;;13.93;7.90;;;;;;;15.82;68.33;101608.63;5034883;28;20029;-74
2022/10/30 03:23:36;;;;;;;16.95;7.82;;;;;;;15.79;68.45;101597.97;5034103;28;20037;-74
2022/10/30 03:26:01;;;;;;;24.13;8.60;;;;;;;15.79;68.40;101608.34;5034610;28;20037;-74
2022/10/30 03:28:29;;;;;;;17.08;8.40;;;;;;;15.78;68.74;101607.50;5053647;28;20028;-74
2022/10/30 03:30:59;;;;;;;22.35;7.82;;;;;;;15.78;68.69;101615.88;5053901;28;20028;-74
2022/10/30 03:33:24;;;;;;;13.23;7.47;;;;;;;15.76;68.54;101612.53;5054748;28;20116;-74
2022/10/30 03:35:50;;;;;;;22.52;8.10;;;;;;;15.76;68.62;101615.34;5054194;28;20127;-74
2022/10/30 03:38:16;;;;;;;14.60;7.85;;;;;;;15.73;68.19;101613.06;5045978;28;20534;-75
2022/10/30 03:40:41;;;;;;;17.23;7.68;;;;;;;15.73;68.62;101610.28;5050700;28;20025;-74
2022/10/30 03:43:06;;;;;;;14.98;8.02;;;;;;;15.71;68.71;101604.91;5059437;28;20025;-74
2022/10/30 03:45:33;;;;;;;16.65;8.40;;;;;;;15.68;68.89;101610.25;5053637;28;20060;-74
2022/10/30 03:48:04;;;;;;;14.05;7.70;;;;;;;15.63;68.88;101608.19;5036698;28;20530;-74
2022/10/30 03:50:29;;;;;;;15.10;8.10;;;;;;;15.63;69.05;101616.59;5034239;28;20068;-73
2022/10/30 03:52:56;;;;;;;16.38;8.40;;;;;;;15.59;69.41;101623.84;5041401;28;20056;-73
2022/10/30 03:55:22;;;;;;;16.25;8.55;;;;;;;15.60;69.15;101625.53;5053677;28;20356;-74
2022/10/30 03:57:47;;;;;;;16.85;7.68;;;;;;;15.64;68.88;101623.03;5065873;28;20584;-74
2022/10/30 04:00:13;;;;;;;16.83;7.85;;;;;;;15.61;69.16;101620.78;5058937;28;20049;-74
2022/10/30 04:02:44;;;;;;;13.77;7.72;;;;;;;15.60;69.18;101627.47;5047692;28;20017;-74
2022/10/30 04:05:09;;;;;;;17.00;7.75;;;;;;;15.57;69.24;101626.06;5046872;28;20039;-74
2022/10/30 04:07:34;;;;;;;18.85;8.15;;;;;;;15.50;69.07;101621.81;5053689;28;20029;-74
2022/10/30 04:09:59;;;;;;;15.80;8.13;;;;;;;15.52;69.30;101625.16;5050164;28;20041;-75
2022/10/30 04:12:25;;;;;;;14.30;8.00;;;;;;;15.55;68.97;101635.84;5053954;28;20032;-74
2022/10/30 04:14:50;;;;;;;14.30;7.90;;;;;;;15.51;69.03;101632.72;5073650;28;20043;-74
2022/10/30 04:17:15;;;;;;;14.10;7.63;;;;;;;15.48;69.30;101630.44;5073931;28;20174;-74
2022/10/30 04:19:40;;;;;;;16.33;8.27;;;;;;;15.48;69.21;101627.66;5043641;28;20049;-73
2022/10/30 04:22:06;;;;;;;21.45;7.80;;;;;;;15.42;68.90;101623.16;5066925;28;20064;-73
2022/10/30 04:24:31;;;;;;;18.55;7.93;;;;;;;15.44;69.57;101626.50;5073294;28;20078;-73
2022/10/30 04:26:56;;;;;;;17.65;8.60;;;;;;;15.44;69.61;101632.09;5071701;28;20029;-74
2022/10/30 04:29:21;;;;;;;16.00;8.15;;;;;;;15.43;69.45;101630.41;5041015;28;20444;-73
2022/10/30 04:31:47;;;;;;;15.27;8.30;;;;;;;15.44;69.35;101634.91;5033638;28;20033;-73
2022/10/30 04:34:12;;;;;;;19.42;8.18;;;;;;;15.43;69.39;101622.03;5032755;28;20049;-74
2022/10/30 04:36:38;;;;;;;18.10;8.30;;;;;;;15.43;69.39;101625.66;5046611;28;20025;-74
2022/10/30 04:39:03;;;;;;;14.45;7.93;;;;;;;15.41;69.63;101619.50;5051423;28;20037;-74
2022/10/30 04:41:28;;;;;;;15.85;8.38;;;;;;;15.42;69.65;101611.97;5044337;28;20041;-74
2022/10/30 04:43:53;;;;;;;19.60;8.00;;;;;;;15.37;69.89;101618.34;5047861;28;20044;-74
2022/10/30 04:46:19;;;;;;;16.80;8.10;;;;;;;15.40;69.73;101612.19;5053259;28;20032;-73
2022/10/30 04:48:44;;;;;;;17.83;8.20;;;;;;;15.38;69.99;101605.22;5051433;28;20029;-73
2022/10/30 04:51:10;;;;;;;15.52;7.82;;;;;;;15.37;69.79;101595.13;5049237;28;20040;-73
2022/10/30 04:53:37;;;;;;;13.77;8.10;;;;;;;15.35;69.86;101592.59;5051031;28;20400;-73
2022/10/30 04:56:03;;;;;;;17.67;8.40;;;;;;;15.36;70.29;101588.69;5050019;28;20037;-73
2022/10/30 04:58:28;;;;;;;15.02;8.18;;;;;;;15.33;70.43;101592.03;5033215;28;20036;-73
2022/10/30 05:00:53;;;;;;;15.73;8.35;;;;;;;15.37;70.51;101595.13;5037611;28;20041;-73
2022/10/30 05:03:21;;;;;;;17.33;8.15;;;;;;;15.38;70.40;101594.84;5040731;28;20021;-73
2022/10/30 05:05:57;;;;;;;20.05;8.43;;;;;;;15.36;70.51;101591.47;5037021;28;20464;-74
2022/10/30 05:08:22;;;;;;;20.52;8.43;;;;;;;15.35;70.42;101592.59;5052620;28;20079;-74
2022/10/30 05:10:48;;;;;;;18.02;8.10;;;;;;;15.40;70.76;101592.63;5044600;28;20017;-74
2022/10/30 05:13:13;;;;;;;19.00;8.45;;;;;;;15.38;70.63;101596.81;5072830;28;20112;-74
2022/10/30 05:15:38;;;;;;;17.17;8.00;;;;;;;15.37;70.41;101593.19;5072009;28;20535;-74
2022/10/30 05:18:04;;;;;;;20.33;8.13;;;;;;;15.37;70.22;101590.38;5072622;28;20494;-74
2022/10/30 05:20:29;;;;;;;15.68;8.25;;;;;;;15.31;70.46;101593.41;5058852;28;20123;-74
2022/10/30 05:22:55;;;;;;;16.67;8.68;;;;;;;15.31;70.25;101601.78;5052191;28;20044;-74
2022/10/30 05:25:22;;;;;;;18.23;7.70;;;;;;;15.30;70.16;101603.75;5050060;28;20032;-74
2022/10/30 05:27:47;;;;;;;13.88;7.35;;;;;;;15.27;69.99;101601.47;5070950;28;20148;-74
2022/10/30 05:30:12;;;;;;;11.93;7.80;;;;;;;15.22;70.09;101602.28;5068718;28;20113;-74
2022/10/30 05:32:38;;;;;;;15.13;8.40;;;;;;;15.22;69.99;101621.00;5032876;28;20040;-74
2022/10/30 05:35:03;;;;;;;13.95;7.40;;;;;;;15.20;69.87;101607.28;5035471;28;20102;-73
2022/10/30 05:37:28;;;;;;;18.25;8.48;;;;;;;15.15;70.09;101614.78;5051459;28;20029;-74
2022/10/30 05:39:54;;;;;;;16.10;7.82;;;;;;;15.18;70.04;101608.69;5050073;28;20033;-74
2022/10/30 05:42:22;;;;;;;12.82;7.72;;;;;;;15.12;69.79;101606.94;5041639;28;20465;-74
2022/10/30 05:44:47;;;;;;;16.63;8.00;;;;;;;15.09;69.79;101608.31;5054447;28;20043;-74
2022/10/30 05:47:13;;;;;;;15.57;8.20;;;;;;;15.06;69.42;101611.63;5050764;28;20049;-74
2022/10/30 05:49:38;;;;;;;15.05;7.97;;;;;;;15.07;69.61;101606.88;5050152;28;20500;-74
2022/10/30 05:52:03;;;;;;;15.25;7.85;;;;;;;15.03;69.68;101605.72;5051061;28;20037;-74
2022/10/30 05:54:29;;;;;;;17.27;8.48;;;;;;;14.99;69.57;101599.81;5052108;28;20032;-73
2022/10/30 05:56:56;;;;;;;19.13;8.07;;;;;;;14.94;69.71;101603.41;5050167;28;20071;-74
2022/10/30 05:59:21;;;;;;;21.48;8.55;;;;;;;14.89;69.62;101606.13;5052941;28;20037;-74
2022/10/30 06:01:46;;;;;;;15.07;8.10;;;;;;;14.88;69.37;101607.25;5044438;28;20029;-74
2022/10/30 06:04:11;;;;;;;14.80;7.75;;;;;;;14.86;69.47;101605.84;5050283;28;20078;-75
2022/10/30 06:06:37;;;;;;;13.82;7.38;;;;;;;14.81;69.67;101606.63;5050242;28;20107;-74
2022/10/30 06:09:02;;;;;;;16.75;7.50;;;;;;;14.82;69.85;101599.09;5039745;28;20037;-74
2022/10/30 06:11:27;;;;;;;16.65;7.63;;;;;;;14.77;69.35;101605.44;5035758;28;20021;-74
2022/10/30 06:13:53;;;;;;;15.10;7.05;;;;;;;14.75;69.64;101615.22;5050854;28;20025;-74
2022/10/30 06:16:18;;;;;;;14.30;7.82;;;;;;;14.72;69.53;101616.59;5054030;28;20036;-75
2022/10/30 06:18:43;;;;;;;11.32;7.72;;;;;;;14.71;69.46;101610.16;5067956;28;20528;-76
2022/10/30 06:21:08;;;;;;;15.30;7.75;;;;;;;14.67;69.54;101610.94;5038385;28;20033;-75
2022/10/30 06:23:34;;;;;;;21.60;7.85;;;;;;;14.69;69.77;101603.13;5050277;28;20033;-75
2022/10/30 06:25:59;;;;;;;13.45;7.57;;;;;;;14.65;68.93;101605.59;5036350;28;20033;-74
2022/10/30 06:28:24;;;;;;;12.90;7.38;;;;;;;14.62;69.13;101606.16;5048531;28;20120;-75
2022/10/30 06:30:49;;;;;;;16.55;8.27;;;;;;;14.57;69.58;101600.47;5038776;28;20021;-74
2022/10/30 06:33:15;;;;;;;13.32;7.60;;;;;;;14.57;69.80;101596.84;5030161;28;20025;-74
2022/10/30 06:35:40;;;;;;;17.45;8.98;;;;;;;14.57;69.89;101599.63;5040358;28;20040;-75
2022/10/30 06:38:07;;;;;;;14.75;7.32;;;;;;;14.55;69.54;101613.03;5034513;28;20118;-74
2022/10/30 06:40:32;;;;;;;14.57;7.70;;;;;;;14.49;69.58;101609.31;5030721;28;20029;-74
2022/10/30 06:42:58;;;;;;;15.40;7.60;;;;;;;14.51;69.45;101603.50;5031468;28;20025;-74
2022/10/30 06:45:26;;;;;;;12.23;7.75;;;;;;;14.52;69.65;101600.44;5039517;28;20076;-74
2022/10/30 06:47:51;;;;;;;16.33;8.10;;;;;;;14.49;69.77;101601.78;5030268;28;20056;-74
2022/10/30 06:50:19;;;;;;;13.30;7.70;;;;;;;14.44;69.95;101609.25;5030935;28;20053;-74
2022/10/30 06:52:44;;;;;;;15.75;8.43;;;;;;;14.42;70.08;101600.25;5046960;28;20037;-74
2022/10/30 06:55:10;;;;;;;19.08;8.77;;;;;;;14.38;70.18;101604.69;5031232;28;20366;-75
2022/10/30 06:57:36;;;;;;;13.82;7.70;;;;;;;14.37;69.89;101594.63;5031913;28;20029;-74
2022/10/30 07:00:02;;;;;;;15.35;7.80;;;;;;;14.35;69.76;101589.31;5046555;28;20036;-74
2022/10/30 07:02:27;;;;;;;21.50;8.57;;;;;;;14.39;70.26;101593.28;5049350;28;20076;-74
2022/10/30 07:04:53;;;;;;;15.13;8.15;;;;;;;14.38;70.46;101585.13;5050797;28;20488;-74
2022/10/30 07:07:18;;;;;;;15.45;7.50;;;;;;;14.38;70.23;101583.22;5041907;28;20033;-75
2022/10/30 07:09:45;;;;;;;15.85;7.65;;;;;;;14.42;70.32;101584.38;5035485;28;20468;-75
2022/10/30 07:12:10;;;;;;;10.57;7.53;;;;;;;14.40;70.49;101586.56;5057225;28;20477;-74
2022/10/30 07:14:36;;;;;;;14.90;7.32;;;;;;;14.41;70.75;101582.66;5035054;28;20029;-75
2022/10/30 07:17:01;;;;;;;14.25;7.35;;;;;;;14.46;70.90;101584.66;5029639;28;20038;-75
2022/10/30 07:19:26;;;;;;;15.13;8.23;;;;;;;14.46;71.05;101585.53;5030742;28;20025;-75
2022/10/30 07:21:52;;;;;;;17.75;8.00;;;;;;;14.45;71.21;101585.78;5046239;28;20032;-74
2022/10/30 07:24:17;;;;;;;17.38;7.75;;;;;;;14.47;71.02;101586.38;5070225;28;20048;-74
2022/10/30 07:26:43;;;;;;;17.83;8.02;;;;;;;14.44;71.31;101586.91;5040081;28;20527;-75
2022/10/30 07:29:08;;;;;;;16.02;7.97;;;;;;;14.47;71.13;101586.38;5032800;28;20108;-75
2022/10/30 07:31:33;;;;;;;16.23;8.02;;;;;;;14.49;71.22;101590.63;5044672;28;20025;-74
2022/10/30 07:33:58;;;;;;;14.63;8.27;;;;;;;14.52;71.61;101588.41;5045924;28;20402;-73
2022/10/30 07:36:24;;;;;;;16.33;8.00;;;;;;;14.52;71.51;101599.59;5043536;28;20480;-74
2022/10/30 07:38:50;;;;;;;11.35;7.65;;;;;;;14.51;71.81;101601.53;5049482;28;20036;-72
2022/10/30 07:41:20;;;;;;;11.63;7.47;;;;;;;14.76;78.04;101606.56;5043830;28;20029;-76
2022/10/30 07:43:45;;;;;;;17.33;8.10;;;;;;;14.63;72.13;101595.81;5046840;28;20017;-72
2022/10/30 07:46:12;;;;;;;14.05;7.97;;;;;;;14.61;72.28;101590.47;5048665;28;20424;-74
2022/10/30 07:48:37;;;;;;;13.25;8.07;;;;;;;14.62;72.13;101594.97;5044769;28;20487;-73
2022/10/30 07:51:03;;;;;;;17.02;8.05;;;;;;;14.65;72.32;101582.41;5046753;28;20041;-74
2022/10/30 07:53:28;;;;;;;15.02;8.25;;;;;;;14.68;72.28;101584.69;5041254;28;20175;-67
2022/10/30 07:55:54;;;;;;;12.30;7.82;;;;;;;14.68;72.50;101588.31;5042658;28;20025;-70
2022/10/30 07:58:20;;;;;;;16.15;8.07;;;;;;;14.77;72.48;101604.63;5043232;28;20103;-70
2022/10/30 08:00:46;;;;;;;15.88;8.93;;;;;;;14.73;73.12;101593.94;5041981;28;20032;-72
2022/10/30 08:03:11;;;;;;;21.95;8.55;;;;;;;14.80;72.74;101590.13;5048042;28;20029;-77
2022/10/30 08:05:37;;;;;;;19.88;8.60;;;;;;;14.84;72.97;101596.88;5043172;28;20069;-78
2022/10/30 08:08:05;;;;;;;13.23;8.18;;;;;;;14.92;72.70;101594.44;5038743;28;20040;-76
2022/10/30 08:10:31;;;;;;;17.55;8.15;;;;;;;14.96;73.34;101595.59;5053443;28;20022;-78
2022/10/30 08:12:56;;;;;;;14.00;8.10;;;;;;;15.00;73.37;101584.72;5049907;28;20043;-75
2022/10/30 08:15:22;;;;;;;15.32;8.02;;;;;;;15.05;73.16;101583.94;5035886;28;20030;-73
2022/10/30 08:17:48;;;;;;;14.15;7.68;;;;;;;15.08;73.35;101577.81;5053325;28;20477;-72
2022/10/30 08:20:17;;;;;;;13.90;8.43;;;;;;;15.08;73.14;101575.84;5044240;28;20126;-77
2022/10/30 08:22:48;;;;;;;17.83;8.57;;;;;;;15.14;72.85;101573.97;5048739;28;20028;-74
2022/10/30 08:25:14;;;;;;;16.90;8.30;;;;;;;15.16;73.25;101578.16;5048386;28;20408;-78
2022/10/30 08:27:54;;;;;;;10.77;8.00;;;;;;;15.23;73.05;101583.53;5049333;28;20056;-76
2022/10/30 08:30:20;;;;;;;15.50;8.05;;;;;;;15.27;72.85;101590.28;5045876;28;20070;-76
2022/10/30 08:32:46;;;;;;;17.75;8.32;;;;;;;15.28;72.77;101597.56;5033773;28;20028;-75
2022/10/30 08:35:11;;;;;;;15.23;7.60;;;;;;;15.35;72.63;101600.16;5037442;28;20040;-71
2022/10/30 08:37:37;;;;;;;12.35;8.32;;;;;;;15.41;72.80;101599.94;5035096;28;20033;-72
2022/10/30 08:40:02;;;;;;;17.33;7.65;;;;;;;15.45;73.13;101587.09;5045690;28;20041;-71
2022/10/30 08:42:28;;;;;;;17.48;7.75;;;;;;;15.51;72.06;101584.31;5037324;28;20492;-72
2022/10/30 08:44:53;;;;;;;15.85;8.57;;;;;;;15.54;72.72;101584.63;5045373;28;20419;-71
2022/10/30 08:47:18;;;;;;;18.52;8.50;;;;;;;15.58;72.98;101598.94;5037051;28;20377;-70
2022/10/30 08:49:44;;;;;;;16.70;7.78;;;;;;;15.64;72.38;101593.09;5034984;28;20119;-72
2022/10/30 08:52:09;;;;;;;16.65;7.93;;;;;;;15.71;72.77;101593.72;5046563;28;20029;-72
2022/10/30 08:54:35;;;;;;;18.80;8.30;;;;;;;15.75;71.75;101591.22;5041684;28;20120;-71
2022/10/30 08:57:00;;;;;;;14.75;7.70;;;;;;;15.79;71.91;101597.13;5029153;28;20124;-72
2022/10/30 08:59:26;;;;;;;16.60;7.95;;;;;;;15.81;71.52;101592.13;5042352;28;20045;-71
2022/10/30 09:01:51;;;;;;;15.80;7.75;;;;;;;15.85;71.34;101601.66;5062745;28;20032;-72
2022/10/30 09:04:16;;;;;;;15.73;7.88;;;;;;;15.89;70.95;101597.22;5056113;28;20030;-72
2022/10/30 09:06:41;;;;;;;16.70;8.02;;;;;;;15.92;71.12;101586.31;5031228;28;20032;-72
2022/10/30 09:09:07;;;;;;;15.80;8.43;;;;;;;15.98;71.43;101589.97;5034758;28;20032;-71
2022/10/30 09:11:32;;;;;;;15.90;7.85;;;;;;;16.05;70.96;101584.97;5049027;28;20037;-71
2022/10/30 09:13:57;;;;;;;16.63;8.35;;;;;;;16.14;71.24;101574.09;5040431;28;20480;-70
2022/10/30 09:16:22;;;;;;;13.38;7.75;;;;;;;16.25;70.38;101570.22;5049876;28;20094;-71
2022/10/30 09:18:48;;;;;;;14.52;7.78;;;;;;;16.39;69.92;101567.78;5045686;28;20080;-71
2022/10/30 09:21:13;;;;;;;20.85;8.00;;;;;;;16.55;69.70;101566.69;5048424;28;20063;-72
2022/10/30 09:23:39;;;;;;;15.20;7.30;;;;;;;16.71;69.52;101567.59;5046272;28;20029;-72
2022/10/30 09:26:04;;;;;;;12.60;7.57;;;;;;;16.80;69.07;101571.56;5039938;28;20373;-71
2022/10/30 09:28:29;;;;;;;19.00;7.50;;;;;;;16.85;69.31;101565.94;5039752;28;20037;-73
2022/10/30 09:30:55;;;;;;;16.83;7.47;;;;;;;16.87;69.57;101579.69;5043053;28;20048;-66
2022/10/30 09:33:21;;;;;;;16.08;7.97;;;;;;;16.92;69.01;101574.94;5046641;28;20025;-72
2022/10/30 09:35:47;;;;;;;13.23;7.35;;;;;;;16.99;69.08;101574.66;5042276;28;20057;-72
2022/10/30 09:38:12;;;;;;;17.67;7.32;;;;;;;17.05;68.24;101569.91;5053051;28;20037;-72
2022/10/30 09:41:17;;;;;;;17.02;8.50;;;;;;;17.23;68.51;101562.91;5045556;28;20472;-72
2022/10/30 09:43:54;;;;;;;16.20;7.13;;;;;;;17.40;67.46;101571.88;5050024;28;20044;-71
2022/10/30 09:46:48;;;;;;;13.57;6.82;;;;;;;17.51;67.52;101581.13;5050202;28;20025;-71
2022/10/30 09:49:26;;;;;;;15.30;7.40;;;;;;;17.51;67.01;101590.38;5050777;28;20037;-70
2022/10/30 09:52:00;;;;;;;16.27;6.95;;;;;;;17.53;68.86;101592.94;5048290;28;20040;-71
2022/10/30 09:55:03;;;;;;;15.48;7.30;;;;;;;17.47;67.96;101599.66;5058641;28;20032;-71
2022/10/30 09:57:48;;;;;;;16.70;7.80;;;;;;;17.42;68.03;101606.13;5035041;28;20053;-70
2022/10/30 10:00:19;;;;;;;12.80;6.80;;;;;;;17.44;68.98;101598.25;5046116;28;20110;-71
2022/10/30 10:03:16;;;;;;;14.13;7.27;;;;;;;17.44;68.91;101601.03;5038089;28;20068;-71
2022/10/30 10:05:53;;;;;;;13.45;7.15;;;;;;;17.46;69.25;101597.97;5030130;28;20033;-71
2022/10/30 10:08:38;;;;;;;20.65;8.43;;;;;;;17.46;67.97;101603.59;5029616;28;20036;-71
2022/10/30 10:11:17;;;;;;;17.17;7.95;;;;;;;17.57;68.00;101588.44;5029054;28;20041;-71
2022/10/30 10:13:53;;;;;;;15.63;7.28;;;;;;;17.78;67.70;101587.28;5041760;28;20135;-68
2022/10/30 10:16:22;;;;;;;18.90;7.05;;;;;;;17.88;67.12;101592.91;5045006;28;20028;-68
2022/10/30 10:18:57;;;;;;;17.40;7.07;;;;;;;18.01;66.60;101591.47;5053024;28;20603;-73
2022/10/30 10:21:25;;;;;;;21.48;6.95;;;;;;;18.10;65.81;101586.09;5030139;28;20115;-71
2022/10/30 10:23:54;;;;;;;14.38;7.00;;;;;;;18.15;66.09;101584.09;5031246;28;20026;-69
2022/10/30 10:26:26;;;;;;;15.13;6.70;;;;;;;18.21;65.25;101587.75;5034607;28;20397;-70
2022/10/30 10:29:27;;;;;;;12.23;6.28;;;;;;;18.29;65.43;101583.50;5036728;28;20025;-70
2022/10/30 10:32:14;;;;;;;12.68;6.78;;;;;;;18.34;65.26;101586.28;5045335;28;20029;-68
2022/10/30 10:35:18;;;;;;;14.85;7.05;;;;;;;18.40;65.32;101579.50;5037175;28;20037;-71
2022/10/30 10:38:01;;;;;;;14.70;7.15;;;;;;;18.46;64.59;101571.88;5053231;28;20052;-72
2022/10/30 10:40:59;;;;;;;16.92;6.90;;;;;;;18.51;65.09;101575.53;5039471;28;20115;-70
2022/10/30 10:43:36;;;;;;;15.88;6.90;;;;;;;18.56;64.42;101569.03;5048908;28;20523;-70
2022/10/30 10:46:23;;;;;;;18.25;6.88;;;;;;;18.59;64.26;101565.66;5037042;28;20045;-71
2022/10/30 10:49:13;;;;;;;13.40;6.88;;;;;;;18.64;65.40;101571.22;5049336;28;20055;-72
2022/10/30 10:51:42;;;;;;;16.05;6.50;;;;;;;18.73;64.59;101577.94;5047280;28;20064;-71
2022/10/30 10:54:15;;;;;;;13.52;6.30;;;;;;;18.76;64.19;101573.72;5047085;28;20100;-71
2022/10/30 10:56:45;;;;;;;12.93;6.60;;;;;;;18.78;63.43;101571.44;5049626;28;20059;-71
2022/10/30 10:59:13;;;;;;;12.38;5.93;;;;;;;18.81;63.35;101585.78;5041802;28;20025;-70
2022/10/30 11:01:43;;;;;;;14.48;6.85;;;;;;;18.81;63.25;101579.31;5031860;28;20036;-71
2022/10/30 11:04:26;;;;;;;12.05;6.60;;;;;;;18.84;64.13;101578.75;5035088;28;20036;-71
2022/10/30 11:06:54;;;;;;;16.27;6.35;;;;;;;18.91;63.14;101575.59;5033502;28;20091;-71
2022/10/30 11:09:22;;;;;;;16.20;6.43;;;;;;;18.96;63.16;101573.59;5037518;28;20029;-72
2022/10/30 11:11:49;;;;;;;14.98;6.05;;;;;;;19.01;62.68;101562.28;5030821;28;20044;-69
2022/10/30 11:14:18;;;;;;;13.65;6.10;;;;;;;19.03;62.73;101564.81;5029768;28;20034;-72
2022/10/30 11:17:19;;;;;;;13.50;6.13;;;;;;;19.03;63.29;101562.84;5039435;28;20054;-72
2022/10/30 11:19:47;;;;;;;13.93;6.47;;;;;;;19.09;62.85;101555.19;5038543;28;20214;-70
2022/10/30 11:22:31;;;;;;;14.40;6.25;;;;;;;19.09;63.52;101549.56;5023665;28;20049;-71
2022/10/30 11:25:16;;;;;;;15.27;5.82;;;;;;;19.10;63.17;101551.28;5040857;28;20079;-72
2022/10/30 11:27:43;;;;;;;17.60;6.50;;;;;;;19.10;62.34;101554.09;5044117;28;20059;-71
2022/10/30 11:30:23;;;;;;;15.63;6.10;;;;;;;19.08;62.89;101547.91;5030300;28;20061;-70